Hudson, Kentucky
Current Conditions -  °F | °C
As of 6:58 PM on Monday 24 Nov 2014 (Local Time) from KFTK Reporting Station
Clear Clear  
Wind Chill: 39°   Ceiling: Unl
Heat Index: 44°   Visibility: 10mi
Dew Point: 33°   Wind: 10mph
Humidity: 66%   Direction: 220°SW
Pressure: 29.9"   Gusts: NA
Location:  37.65°N, 86.28°W
Report Text: KFTK 250058Z AUTO 22009KT 10SM CLR 07/01 A2990 RMK AO2 SLP128 T00680008
Loading
Personal Weather Stations






























Interactive Weather Map New forecast layout! Learn more

10-Day Weather Forecast

Advertisements
Track Severe Weather on mobile